Time;durP1;ratioP1;P1;durP2;ratioP2;P2;SDS_P1;SDS_P2;PMS_P1;PMS_P2;Temp;Humidity;BMP_temperature;BMP_pressure;BME280_temperature;BME280_humidity;BME280_pressure;Samples;Min_cycle;Max_cycle;Signal;HPM_P1;HPM_P2
2022/04/02 00:00:17;;;;;;;5.82;2.47;;;;;;;;;;5088450;28;20024;-59
2022/04/02 00:02:44;;;;;;;3.78;2.55;;;;;;;;;;5079597;28;20405;-60
2022/04/02 00:05:10;;;;;;;5.20;2.50;;;;;;;;;;5087003;28;20048;-60
2022/04/02 00:07:36;;;;;;;4.50;2.83;;;;;;;;;;5082384;28;20041;-60
2022/04/02 00:10:03;;;;;;;4.53;2.40;;;;;;;;;;5073748;28;20136;-60
2022/04/02 00:12:29;;;;;;;6.60;2.65;;;;;;;;;;5072876;28;20040;-60
2022/04/02 00:14:55;;;;;;;3.35;2.20;;;;;;;;;;5072856;28;20051;-60
2022/04/02 00:17:21;;;;;;;7.40;2.70;;;;;;;;;;5072067;28;20044;-60
2022/04/02 00:19:48;;;;;;;4.70;2.53;;;;;;;;;;5073248;28;20111;-60
2022/04/02 00:22:14;;;;;;;4.80;2.47;;;;;;;;;;5071715;28;20044;-60
2022/04/02 00:24:41;;;;;;;4.30;2.80;;;;;;;;;;5069356;28;20032;-60
2022/04/02 00:27:07;;;;;;;3.70;2.30;;;;;;;;;;5067281;28;20083;-60
2022/04/02 00:29:34;;;;;;;5.00;2.80;;;;;;;;;;5072092;28;20036;-59
2022/04/02 00:32:00;;;;;;;5.32;2.67;;;;;;;;;;5071469;28;20068;-60
2022/04/02 00:34:26;;;;;;;6.55;2.53;;;;;;;;;;5067592;28;20048;-60
2022/04/02 00:36:52;;;;;;;5.18;2.75;;;;;;;;;;5069658;28;20032;-59
2022/04/02 00:39:20;;;;;;;3.70;2.40;;;;;;;;;;5062608;28;20490;-59
2022/04/02 00:41:46;;;;;;;4.68;2.72;;;;;;;;;;5070571;28;20040;-59
2022/04/02 00:44:13;;;;;;;5.22;2.50;;;;;;;;;;5061281;28;20047;-59
2022/04/02 00:46:40;;;;;;;5.38;2.47;;;;;;;;;;5072424;28;20044;-59
2022/04/02 00:49:06;;;;;;;4.68;2.35;;;;;;;;;;5072759;28;20119;-60
2022/04/02 00:51:33;;;;;;;4.68;2.58;;;;;;;;;;5065146;28;20038;-59
2022/04/02 00:54:00;;;;;;;4.32;2.47;;;;;;;;;;5061337;28;20394;-60
2022/04/02 00:56:26;;;;;;;4.07;2.38;;;;;;;;;;5072314;28;20044;-60
2022/04/02 00:58:52;;;;;;;3.85;2.53;;;;;;;;;;5060620;28;20047;-60
2022/04/02 01:01:18;;;;;;;3.80;2.60;;;;;;;;;;5061444;28;20430;-60
2022/04/02 01:03:44;;;;;;;5.32;2.60;;;;;;;;;;5059947;28;20085;-60
2022/04/02 01:06:11;;;;;;;6.15;2.72;;;;;;;;;;5060165;28;20049;-60
2022/04/02 01:08:38;;;;;;;5.10;2.55;;;;;;;;;;5070746;28;20070;-59
2022/04/02 01:11:04;;;;;;;6.60;2.53;;;;;;;;;;5057864;28;20560;-60
2022/04/02 01:13:30;;;;;;;4.25;3.10;;;;;;;;;;5069711;28;20049;-59
2022/04/02 01:15:56;;;;;;;3.45;2.45;;;;;;;;;;5052484;28;20045;-60
2022/04/02 01:18:23;;;;;;;5.53;2.35;;;;;;;;;;5053620;28;20044;-60
2022/04/02 01:20:49;;;;;;;5.78;2.88;;;;;;;;;;5058880;28;20218;-60
2022/04/02 01:23:15;;;;;;;4.05;2.45;;;;;;;;;;5071165;28;20048;-59
2022/04/02 01:25:41;;;;;;;4.90;2.28;;;;;;;;;;5072754;28;20041;-60
2022/04/02 01:28:07;;;;;;;6.10;2.40;;;;;;;;;;5069964;28;20105;-59
2022/04/02 01:30:33;;;;;;;5.40;2.80;;;;;;;;;;5067036;28;20125;-59
2022/04/02 01:32:59;;;;;;;4.80;2.85;;;;;;;;;;5051096;28;20045;-59
2022/04/02 01:35:25;;;;;;;4.88;2.92;;;;;;;;;;5057228;28;20116;-59
2022/04/02 01:37:52;;;;;;;5.07;2.58;;;;;;;;;;5070393;28;20112;-59
2022/04/02 01:40:18;;;;;;;3.85;2.60;;;;;;;;;;5056043;28;20041;-59
2022/04/02 01:42:45;;;;;;;4.60;2.53;;;;;;;;;;5069533;28;20448;-59
2022/04/02 01:45:11;;;;;;;5.03;2.42;;;;;;;;;;5067590;28;20059;-59
2022/04/02 01:47:37;;;;;;;3.33;2.22;;;;;;;;;;5052047;28;20036;-59
2022/04/02 01:50:04;;;;;;;3.88;2.90;;;;;;;;;;5057893;28;20044;-59
2022/04/02 01:52:30;;;;;;;5.05;2.60;;;;;;;;;;5064788;28;20268;-59
2022/04/02 01:54:56;;;;;;;4.43;2.47;;;;;;;;;;5071646;28;20040;-59
2022/04/02 01:57:22;;;;;;;4.13;2.70;;;;;;;;;;5066191;28;20043;-59
2022/04/02 01:59:50;;;;;;;5.45;2.40;;;;;;;;;;5061868;28;20500;-59
2022/04/02 02:02:16;;;;;;;5.57;2.63;;;;;;;;;;5066099;28;20083;-59
2022/04/02 02:04:42;;;;;;;5.40;2.92;;;;;;;;;;5070396;28;20539;-59
2022/04/02 02:07:08;;;;;;;5.15;2.33;;;;;;;;;;5062302;28;20039;-59
2022/04/02 02:09:35;;;;;;;3.40;2.50;;;;;;;;;;5060351;28;20041;-59
2022/04/02 02:12:01;;;;;;;4.35;2.75;;;;;;;;;;5058519;28;20040;-59
2022/04/02 02:14:29;;;;;;;3.55;2.22;;;;;;;;;;5068503;28;20044;-59
2022/04/02 02:16:55;;;;;;;3.60;2.60;;;;;;;;;;5071369;28;20041;-58
2022/04/02 02:19:21;;;;;;;5.35;2.30;;;;;;;;;;5066780;28;20080;-59
2022/04/02 02:21:47;;;;;;;4.45;2.50;;;;;;;;;;5061907;28;20175;-58
2022/04/02 02:24:13;;;;;;;4.55;3.20;;;;;;;;;;5066897;28;20082;-60
2022/04/02 02:26:39;;;;;;;3.42;2.55;;;;;;;;;;5057238;28;20090;-60
2022/04/02 02:29:06;;;;;;;5.03;2.63;;;;;;;;;;5064829;28;20120;-60
2022/04/02 02:31:32;;;;;;;5.63;2.90;;;;;;;;;;5059280;28;20044;-60
2022/04/02 02:36:43;;;;;;;4.82;2.40;;;;;;;;;;5066643;28;20044;-60
2022/04/02 02:39:09;;;;;;;4.25;2.65;;;;;;;;;;5066686;28;20029;-59
2022/04/02 02:41:35;;;;;;;2.88;2.28;;;;;;;;;;5062617;28;20081;-60
2022/04/02 02:44:01;;;;;;;4.70;2.67;;;;;;;;;;5051494;28;20059;-60
2022/04/02 02:46:27;;;;;;;6.63;2.63;;;;;;;;;;5052528;28;20048;-59
2022/04/02 02:48:53;;;;;;;6.38;3.10;;;;;;;;;;5051983;28;20036;-60
2022/04/02 02:51:19;;;;;;;5.15;3.00;;;;;;;;;;5058620;28;20048;-59
2022/04/02 02:53:45;;;;;;;7.72;3.40;;;;;;;;;;5070348;28;20041;-59
2022/04/02 02:56:11;;;;;;;4.63;3.08;;;;;;;;;;5057888;28;20040;-60
2022/04/02 02:58:37;;;;;;;6.05;2.95;;;;;;;;;;5068107;28;20118;-60
2022/04/02 03:01:04;;;;;;;5.20;2.80;;;;;;;;;;5054035;28;20083;-60
2022/04/02 03:03:31;;;;;;;4.47;2.67;;;;;;;;;;5072923;28;20044;-59
2022/04/02 03:05:57;;;;;;;5.57;3.00;;;;;;;;;;5072879;28;20513;-59
2022/04/02 03:08:24;;;;;;;5.07;3.03;;;;;;;;;;5074767;28;20051;-60
2022/04/02 03:10:50;;;;;;;7.40;2.90;;;;;;;;;;5074562;28;20048;-60
2022/04/02 03:13:16;;;;;;;4.00;2.97;;;;;;;;;;5055751;28;20154;-59
2022/04/02 03:15:42;;;;;;;7.00;3.30;;;;;;;;;;5066894;28;20093;-60
2022/04/02 03:18:08;;;;;;;8.90;3.05;;;;;;;;;;5074762;28;20490;-60
2022/04/02 03:20:35;;;;;;;6.78;3.25;;;;;;;;;;5058881;28;20116;-59
2022/04/02 03:23:02;;;;;;;5.00;2.97;;;;;;;;;;5070412;28;20036;-60
2022/04/02 03:25:28;;;;;;;4.25;3.17;;;;;;;;;;5066960;28;20094;-60
2022/04/02 03:27:54;;;;;;;6.30;2.95;;;;;;;;;;5073783;28;20074;-59
2022/04/02 03:30:21;;;;;;;6.50;2.72;;;;;;;;;;5070652;28;20048;-60
2022/04/02 03:32:47;;;;;;;4.15;3.00;;;;;;;;;;5057186;28;20483;-60
2022/04/02 03:35:16;;;;;;;5.45;3.22;;;;;;;;;;5056858;28;20033;-60
2022/04/02 03:37:44;;;;;;;5.75;3.17;;;;;;;;;;5056370;28;20503;-59
2022/04/02 03:40:11;;;;;;;6.03;3.33;;;;;;;;;;5070626;28;20315;-60
2022/04/02 03:42:37;;;;;;;5.30;3.05;;;;;;;;;;5070925;28;20130;-59
2022/04/02 03:45:04;;;;;;;9.60;3.10;;;;;;;;;;5074652;28;20036;-60
2022/04/02 03:47:31;;;;;;;7.78;3.25;;;;;;;;;;5074255;28;20490;-60
2022/04/02 03:49:57;;;;;;;7.57;3.25;;;;;;;;;;5069618;28;20040;-60
2022/04/02 03:52:23;;;;;;;8.82;3.55;;;;;;;;;;5073114;28;20106;-60
2022/04/02 03:54:49;;;;;;;8.25;3.00;;;;;;;;;;5065242;28;20086;-59
2022/04/02 03:57:15;;;;;;;6.22;3.50;;;;;;;;;;5072492;28;20048;-59
2022/04/02 03:59:42;;;;;;;6.10;3.72;;;;;;;;;;5063450;28;20033;-60
2022/04/02 04:02:08;;;;;;;8.02;4.13;;;;;;;;;;5068966;28;20066;-60
2022/04/02 04:04:36;;;;;;;5.88;3.15;;;;;;;;;;5062466;28;20037;-59
2022/04/02 04:07:02;;;;;;;6.15;3.53;;;;;;;;;;5062447;28;20124;-60
2022/04/02 04:09:28;;;;;;;8.20;3.40;;;;;;;;;;5063241;28;20482;-59
2022/04/02 04:11:54;;;;;;;5.80;3.30;;;;;;;;;;5065132;28;20059;-60
2022/04/02 04:14:22;;;;;;;6.05;3.65;;;;;;;;;;5063492;28;20097;-59
2022/04/02 04:16:48;;;;;;;4.55;3.10;;;;;;;;;;5065621;28;20124;-60
2022/04/02 04:19:14;;;;;;;9.10;3.65;;;;;;;;;;5071522;28;20494;-60
2022/04/02 04:21:41;;;;;;;6.65;3.58;;;;;;;;;;5070364;28;20036;-60
2022/04/02 04:24:08;;;;;;;8.35;3.42;;;;;;;;;;5070952;28;20501;-59
2022/04/02 04:26:34;;;;;;;7.18;3.67;;;;;;;;;;5066488;28;20048;-60
2022/04/02 04:29:00;;;;;;;6.90;3.33;;;;;;;;;;5066042;28;20511;-60
2022/04/02 04:31:26;;;;;;;10.20;3.75;;;;;;;;;;5060805;28;20072;-60
2022/04/02 04:33:52;;;;;;;5.32;2.70;;;;;;;;;;5071359;28;20499;-59
2022/04/02 04:36:19;;;;;;;7.25;3.40;;;;;;;;;;5073523;28;20079;-60
2022/04/02 04:38:46;;;;;;;8.70;3.70;;;;;;;;;;5073062;28;20571;-59
2022/04/02 04:41:13;;;;;;;7.53;3.53;;;;;;;;;;5072748;28;20115;-59
2022/04/02 04:43:41;;;;;;;6.35;3.10;;;;;;;;;;5067701;28;20048;-60
2022/04/02 04:46:07;;;;;;;7.75;3.88;;;;;;;;;;5067035;28;20510;-60
2022/04/02 04:48:33;;;;;;;7.82;3.75;;;;;;;;;;5058496;28;20551;-59
2022/04/02 04:50:59;;;;;;;5.93;3.40;;;;;;;;;;5068622;28;20036;-60
2022/04/02 04:53:25;;;;;;;6.28;3.40;;;;;;;;;;5063908;28;20061;-60
2022/04/02 04:55:51;;;;;;;7.95;3.83;;;;;;;;;;5066509;28;20044;-60
2022/04/02 04:58:17;;;;;;;5.60;3.60;;;;;;;;;;5069126;28;20033;-60
2022/04/02 05:00:43;;;;;;;5.43;2.88;;;;;;;;;;5071800;28;20041;-59
2022/04/02 05:03:10;;;;;;;6.72;3.67;;;;;;;;;;5071403;28;20146;-60
2022/04/02 05:05:37;;;;;;;5.65;3.03;;;;;;;;;;5070751;28;20529;-59
2022/04/02 05:08:03;;;;;;;4.65;3.20;;;;;;;;;;5052930;28;20459;-59
2022/04/02 05:10:29;;;;;;;7.65;3.80;;;;;;;;;;5058093;28;20131;-59
2022/04/02 05:12:55;;;;;;;6.70;3.28;;;;;;;;;;5072745;28;20071;-59
2022/04/02 05:15:21;;;;;;;8.57;3.63;;;;;;;;;;5071966;28;20083;-59
2022/04/02 05:17:47;;;;;;;6.97;3.80;;;;;;;;;;5054370;28;20119;-59
2022/04/02 05:20:14;;;;;;;8.27;3.47;;;;;;;;;;5072473;28;20123;-58
2022/04/02 05:22:41;;;;;;;8.65;3.25;;;;;;;;;;5069014;28;20048;-60
2022/04/02 05:25:07;;;;;;;8.50;3.45;;;;;;;;;;5052615;28;20090;-59
2022/04/02 05:27:33;;;;;;;5.90;2.95;;;;;;;;;;5054041;28;20077;-59
2022/04/02 05:30:00;;;;;;;9.43;3.33;;;;;;;;;;5051122;28;20053;-59
2022/04/02 05:32:28;;;;;;;5.93;3.40;;;;;;;;;;5066600;28;20431;-59
2022/04/02 05:34:54;;;;;;;6.05;3.30;;;;;;;;;;5058625;28;20032;-59
2022/04/02 05:37:20;;;;;;;5.25;3.25;;;;;;;;;;5068662;28;20052;-59
2022/04/02 05:39:46;;;;;;;5.43;3.08;;;;;;;;;;5051601;28;20093;-59
2022/04/02 05:42:12;;;;;;;7.18;3.05;;;;;;;;;;5052313;28;20033;-59
2022/04/02 05:44:39;;;;;;;6.05;3.55;;;;;;;;;;5058432;28;20107;-60
2022/04/02 05:47:05;;;;;;;5.47;3.15;;;;;;;;;;5070253;28;20064;-60
2022/04/02 05:49:32;;;;;;;6.95;3.28;;;;;;;;;;5054814;28;20037;-60
2022/04/02 05:51:58;;;;;;;8.32;3.50;;;;;;;;;;5052374;28;20132;-59
2022/04/02 05:54:24;;;;;;;7.13;3.38;;;;;;;;;;5053108;28;20490;-60
2022/04/02 05:56:52;;;;;;;9.07;3.42;;;;;;;;;;5071406;28;20044;-61
2022/04/02 05:59:18;;;;;;;6.95;3.53;;;;;;;;;;5104659;22;20052;-60
2022/04/02 06:01:44;;;;;;;8.00;3.60;;;;;;;;;;5105573;28;20043;-61
2022/04/02 06:04:11;;;;;;;7.65;3.42;;;;;;;;;;5112815;28;20035;-61
2022/04/02 06:06:37;;;;;;;7.68;4.10;;;;;;;;;;5112395;28;20046;-61
2022/04/02 06:09:03;;;;;;;7.22;3.72;;;;;;;;;;5104385;28;20405;-60
2022/04/02 06:11:30;;;;;;;6.57;3.42;;;;;;;;;;5091975;28;20040;-60
2022/04/02 06:13:56;;;;;;;6.63;3.42;;;;;;;;;;5093671;28;20529;-60
2022/04/02 06:16:23;;;;;;;9.80;3.58;;;;;;;;;;5092976;28;20047;-60
2022/04/02 06:18:49;;;;;;;7.65;3.58;;;;;;;;;;5089850;28;20040;-60
2022/04/02 06:21:15;;;;;;;4.78;3.40;;;;;;;;;;5083399;28;20463;-60
2022/04/02 06:23:42;;;;;;;7.68;3.45;;;;;;;;;;5096094;28;20036;-60
2022/04/02 06:26:08;;;;;;;8.02;3.88;;;;;;;;;;5094644;28;20047;-60
2022/04/02 06:28:37;;;;;;;8.95;3.45;;;;;;;;;;5098815;28;20037;-61
2022/04/02 06:31:03;;;;;;;5.07;3.33;;;;;;;;;;5075598;28;20046;-60
2022/04/02 06:33:29;;;;;;;6.55;3.97;;;;;;;;;;5112062;28;20043;-60
2022/04/02 06:35:55;;;;;;;7.50;3.83;;;;;;;;;;5091896;28;20044;-61
2022/04/02 06:38:21;;;;;;;8.43;3.53;;;;;;;;;;5092131;28;20040;-61
2022/04/02 06:40:47;;;;;;;7.20;4.15;;;;;;;;;;5091924;28;20089;-60
2022/04/02 06:43:13;;;;;;;7.88;3.60;;;;;;;;;;5112215;28;20036;-61
2022/04/02 06:45:39;;;;;;;6.32;4.00;;;;;;;;;;5099741;28;20390;-61
2022/04/02 06:48:05;;;;;;;8.48;3.65;;;;;;;;;;5092382;28;20036;-61
2022/04/02 06:50:31;;;;;;;6.63;3.75;;;;;;;;;;5086501;28;20028;-61
2022/04/02 06:52:57;;;;;;;7.97;3.42;;;;;;;;;;5091052;28;20040;-61
2022/04/02 06:55:23;;;;;;;8.63;3.85;;;;;;;;;;5091408;28;20402;-60
2022/04/02 06:57:53;;;;;;;7.55;4.00;;;;;;;;;;5101031;28;20551;-60
2022/04/02 07:00:20;;;;;;;5.88;3.78;;;;;;;;;;5084657;28;20114;-60
2022/04/02 07:02:46;;;;;;;8.13;3.63;;;;;;;;;;5086039;28;20032;-60
2022/04/02 07:05:12;;;;;;;6.85;2.90;;;;;;;;;;5084671;28;20067;-60
2022/04/02 07:07:38;;;;;;;9.55;3.90;;;;;;;;;;5084711;28;20117;-60
2022/04/02 07:10:06;;;;;;;8.48;3.38;;;;;;;;;;5088701;28;20074;-60
2022/04/02 07:12:32;;;;;;;8.50;3.60;;;;;;;;;;5091421;28;20040;-60
2022/04/02 07:14:58;;;;;;;7.90;2.90;;;;;;;;;;5101629;28;20050;-60
2022/04/02 07:17:24;;;;;;;6.68;3.65;;;;;;;;;;5099897;28;20616;-60
2022/04/02 07:19:51;;;;;;;6.93;3.70;;;;;;;;;;5088312;28;20029;-60
2022/04/02 07:22:20;;;;;;;7.07;3.42;;;;;;;;;;5090946;28;20481;-61
2022/04/02 07:24:46;;;;;;;6.03;3.35;;;;;;;;;;5093335;28;20040;-60
2022/04/02 07:27:12;;;;;;;8.73;3.72;;;;;;;;;;5102060;28;20040;-60
2022/04/02 07:29:40;;;;;;;6.15;3.50;;;;;;;;;;5091594;28;20046;-60
2022/04/02 07:32:07;;;;;;;6.18;3.38;;;;;;;;;;5091588;28;20062;-61
2022/04/02 07:34:33;;;;;;;5.63;2.92;;;;;;;;;;5087379;28;20072;-61
2022/04/02 07:37:11;;;;;;;6.97;3.20;;;;;;;;;;5090518;28;20083;-61
2022/04/02 07:39:47;;;;;;;5.43;2.67;;;;;;;;;;5084115;28;20040;-61
2022/04/02 07:42:19;;;;;;;8.23;3.90;;;;;;;;;;5094962;28;20032;-60
2022/04/02 07:45:08;;;;;;;5.35;3.05;;;;;;;;;;5091246;28;20040;-60
2022/04/02 07:47:35;;;;;;;6.95;3.22;;;;;;;;;;5106703;28;20048;-61
2022/04/02 07:50:03;;;;;;;8.27;3.50;;;;;;;;;;5091918;28;20115;-61
2022/04/02 07:52:29;;;;;;;5.07;2.80;;;;;;;;;;5094875;28;20437;-60
2022/04/02 07:54:56;;;;;;;3.85;2.40;;;;;;;;;;5103512;28;20048;-60
2022/04/02 07:57:25;;;;;;;6.53;3.03;;;;;;;;;;5087573;28;20054;-60
2022/04/02 07:59:59;;;;;;;6.57;3.17;;;;;;;;;;5075641;28;20036;-60
2022/04/02 08:02:39;;;;;;;7.22;3.17;;;;;;;;;;5097165;28;20111;-60
2022/04/02 08:05:07;;;;;;;5.43;3.05;;;;;;;;;;5095544;28;20107;-60
2022/04/02 08:07:34;;;;;;;7.85;2.95;;;;;;;;;;5094289;28;20070;-61
2022/04/02 08:10:01;;;;;;;6.78;2.90;;;;;;;;;;5094665;28;20036;-61
2022/04/02 08:12:27;;;;;;;6.32;2.78;;;;;;;;;;5097772;28;20043;-61
2022/04/02 08:14:54;;;;;;;6.53;3.40;;;;;;;;;;5094605;28;20047;-61
2022/04/02 08:17:21;;;;;;;5.18;2.97;;;;;;;;;;5091949;28;20094;-61
2022/04/02 08:19:49;;;;;;;4.22;2.95;;;;;;;;;;5092435;28;20432;-61
2022/04/02 08:22:16;;;;;;;7.50;3.28;;;;;;;;;;5086555;28;20051;-61
2022/04/02 08:24:42;;;;;;;4.55;3.08;;;;;;;;;;5094288;28;20402;-61
2022/04/02 08:27:12;;;;;;;5.72;2.60;;;;;;;;;;5093841;28;20040;-62
2022/04/02 08:30:02;;;;;;;6.17;3.10;;;;;;;;;;5094293;28;20051;-61
2022/04/02 08:32:38;;;;;;;3.65;2.58;;;;;;;;;;5100802;28;20032;-61
2022/04/02 08:35:04;;;;;;;3.65;2.33;;;;;;;;;;5067917;28;20036;-61
2022/04/02 08:37:40;;;;;;;3.95;2.58;;;;;;;;;;5091271;28;20072;-61
2022/04/02 08:40:24;;;;;;;4.85;2.65;;;;;;;;;;5088125;28;20051;-61
2022/04/02 08:43:09;;;;;;;4.80;2.53;;;;;;;;;;5085927;28;20086;-61
2022/04/02 08:45:41;;;;;;;4.07;2.38;;;;;;;;;;5085204;28;20397;-60
2022/04/02 08:48:22;;;;;;;10.30;3.45;;;;;;;;;;5086797;28;20111;-60
2022/04/02 08:50:49;;;;;;;3.72;2.08;;;;;;;;;;5090521;28;20037;-60
2022/04/02 08:53:23;;;;;;;6.07;2.33;;;;;;;;;;5087948;28;20168;-61
2022/04/02 08:55:50;;;;;;;4.10;2.33;;;;;;;;;;5088040;28;20036;-60
2022/04/02 08:58:23;;;;;;;4.45;2.20;;;;;;;;;;5091598;28;20077;-60
2022/04/02 09:01:04;;;;;;;5.18;2.75;;;;;;;;;;5083344;28;20179;-60
2022/04/02 09:03:49;;;;;;;4.15;2.63;;;;;;;;;;5079565;28;20279;-60
2022/04/02 09:06:33;;;;;;;3.53;2.22;;;;;;;;;;5092276;28;20047;-60
2022/04/02 09:09:04;;;;;;;4.25;2.28;;;;;;;;;;5073427;28;20414;-60
2022/04/02 09:11:36;;;;;;;5.35;2.35;;;;;;;;;;5083579;28;20500;-60
2022/04/02 09:14:12;;;;;;;3.60;2.20;;;;;;;;;;5082246;28;20409;-60
2022/04/02 09:16:41;;;;;;;2.90;2.15;;;;;;;;;;5084030;28;20040;-60
2022/04/02 09:19:25;;;;;;;5.88;2.35;;;;;;;;;;5107299;28;20051;-60
2022/04/02 09:22:00;;;;;;;3.58;2.10;;;;;;;;;;5092200;28;20084;-61
2022/04/02 09:24:33;;;;;;;3.67;2.10;;;;;;;;;;5105081;28;20047;-60
2022/04/02 09:27:08;;;;;;;2.60;1.80;;;;;;;;;;5104884;28;20096;-61
2022/04/02 09:29:43;;;;;;;3.35;2.40;;;;;;;;;;5083294;28;20040;-60
2022/04/02 09:32:29;;;;;;;4.35;2.28;;;;;;;;;;5092562;28;20494;-61
2022/04/02 09:34:55;;;;;;;3.90;2.10;;;;;;;;;;5061363;28;20569;-61
2022/04/02 09:37:30;;;;;;;5.22;1.88;;;;;;;;;;5082486;28;20122;-61
2022/04/02 09:40:09;;;;;;;3.00;1.70;;;;;;;;;;5081061;28;20040;-61
2022/04/02 09:42:41;;;;;;;3.65;2.15;;;;;;;;;;5089928;28;20040;-61
2022/04/02 09:45:14;;;;;;;3.72;2.10;;;;;;;;;;5093499;28;20123;-61
2022/04/02 09:47:59;;;;;;;3.00;1.77;;;;;;;;;;5096921;28;20067;-61
2022/04/02 09:50:26;;;;;;;3.85;2.60;;;;;;;;;;5097312;28;20069;-61
2022/04/02 09:52:56;;;;;;;4.03;2.47;;;;;;;;;;5074318;28;20048;-60
2022/04/02 09:55:30;;;;;;;2.83;1.88;;;;;;;;;;5091741;28;20082;-61
2022/04/02 09:58:12;;;;;;;4.47;2.25;;;;;;;;;;5089922;28;20044;-60
2022/04/02 10:00:42;;;;;;;4.05;1.88;;;;;;;;;;5078638;28;20045;-60
2022/04/02 10:03:09;;;;;;;2.92;1.52;;;;;;;;;;5078676;28;20042;-60
2022/04/02 10:05:46;;;;;;;3.42;1.58;;;;;;;;;;5077897;28;20407;-60
2022/04/02 10:08:20;;;;;;;5.30;1.63;;;;;;;;;;5087212;28;20048;-60
2022/04/02 10:10:50;;;;;;;3.85;1.77;;;;;;;;;;5089929;28;20486;-61
2022/04/02 10:13:16;;;;;;;3.30;1.15;;;;;;;;;;5084221;28;20472;-61
2022/04/02 10:15:42;;;;;;;1.60;1.48;;;;;;;;;;5085250;28;20040;-61
2022/04/02 10:18:11;;;;;;;2.28;1.40;;;;;;;;;;5079960;28;20050;-60
2022/04/02 10:20:38;;;;;;;3.75;1.98;;;;;;;;;;5081689;28;20039;-61
2022/04/02 10:23:23;;;;;;;2.67;1.90;;;;;;;;;;5084458;28;20553;-61
2022/04/02 10:26:08;;;;;;;2.85;1.63;;;;;;;;;;5084172;28;20043;-60
2022/04/02 10:28:44;;;;;;;2.28;1.60;;;;;;;;;;5078101;28;20432;-61
2022/04/02 10:31:14;;;;;;;1.85;1.40;;;;;;;;;;5091671;28;20032;-61
2022/04/02 10:33:43;;;;;;;3.85;1.90;;;;;;;;;;5082580;28;20079;-61
2022/04/02 10:36:10;;;;;;;3.60;1.65;;;;;;;;;;5088703;28;20672;-61
2022/04/02 10:38:37;;;;;;;3.00;1.50;;;;;;;;;;5082781;28;20118;-61
2022/04/02 10:41:11;;;;;;;3.65;1.70;;;;;;;;;;5088056;28;20493;-61
2022/04/02 10:43:44;;;;;;;2.28;1.58;;;;;;;;;;5084503;28;20042;-61
2022/04/02 10:46:11;;;;;;;2.30;1.60;;;;;;;;;;5079840;28;20087;-61
2022/04/02 10:48:46;;;;;;;2.90;1.60;;;;;;;;;;5081060;28;20044;-61
2022/04/02 10:51:13;;;;;;;3.20;1.58;;;;;;;;;;5081076;28;20048;-61
2022/04/02 10:53:42;;;;;;;4.93;1.60;;;;;;;;;;5081982;28;20509;-61
2022/04/02 10:56:15;;;;;;;3.13;1.45;;;;;;;;;;5088299;28;20040;-61
2022/04/02 10:58:46;;;;;;;2.22;1.30;;;;;;;;;;5084621;28;20089;-61
2022/04/02 11:01:12;;;;;;;3.65;1.50;;;;;;;;;;5085988;28;20044;-61
2022/04/02 11:03:39;;;;;;;2.72;1.52;;;;;;;;;;5083872;28;20047;-61
2022/04/02 11:06:09;;;;;;;2.55;1.40;;;;;;;;;;5078822;28;20499;-61
2022/04/02 11:08:35;;;;;;;3.35;1.23;;;;;;;;;;5088753;28;20040;-60
2022/04/02 11:11:24;;;;;;;2.97;1.20;;;;;;;;;;5088889;28;20444;-61
2022/04/02 11:13:52;;;;;;;3.50;1.70;;;;;;;;;;5076564;28;20046;-61
2022/04/02 11:16:23;;;;;;;1.38;1.23;;;;;;;;;;5067223;28;20413;-60
2022/04/02 11:21:50;;;;;;;4.18;1.48;;;;;;;;;;5087222;28;20047;-61
2022/04/02 11:24:17;;;;;;;3.72;1.67;;;;;;;;;;5084604;28;20102;-61
2022/04/02 11:26:44;;;;;;;2.63;1.80;;;;;;;;;;5091960;28;20037;-61
2022/04/02 11:29:13;;;;;;;5.72;2.10;;;;;;;;;;5084407;28;20052;-60
2022/04/02 11:31:41;;;;;;;4.65;2.13;;;;;;;;;;5089449;28;20032;-60
2022/04/02 11:34:08;;;;;;;3.13;1.90;;;;;;;;;;5089034;28;20028;-60
2022/04/02 11:36:41;;;;;;;5.18;2.00;;;;;;;;;;5084942;28;20077;-60
2022/04/02 11:39:10;;;;;;;4.47;2.42;;;;;;;;;;5091250;28;20032;-60
2022/04/02 11:41:38;;;;;;;4.25;2.30;;;;;;;;;;5085147;28;20062;-59
2022/04/02 11:44:08;;;;;;;3.65;1.80;;;;;;;;;;5087618;28;20086;-63
2022/04/02 11:46:52;;;;;;;2.78;1.67;;;;;;;;;;5089737;28;20072;-60
2022/04/02 11:49:31;;;;;;;3.08;1.52;;;;;;;;;;5088888;28;20064;-60
2022/04/02 11:52:07;;;;;;;3.78;1.50;;;;;;;;;;5089950;28;20524;-60
2022/04/02 11:54:39;;;;;;;2.15;1.40;;;;;;;;;;5084236;28;20040;-60
2022/04/02 11:57:06;;;;;;;3.08;1.48;;;;;;;;;;5061972;28;20062;-61
2022/04/02 11:59:34;;;;;;;2.67;1.27;;;;;;;;;;5115606;22;20046;-59
2022/04/02 12:02:01;;;;;;;2.15;1.67;;;;;;;;;;5109949;28;20031;-59
2022/04/02 12:04:27;;;;;;;2.33;1.45;;;;;;;;;;5105222;28;20505;-60
2022/04/02 12:06:54;;;;;;;2.65;1.77;;;;;;;;;;5085819;28;20357;-60
2022/04/02 12:09:27;;;;;;;2.38;1.42;;;;;;;;;;5093413;28;20567;-60
2022/04/02 12:11:56;;;;;;;1.75;1.30;;;;;;;;;;5086663;28;20444;-59
2022/04/02 12:14:29;;;;;;;1.60;1.20;;;;;;;;;;5089370;28;20048;-60
2022/04/02 12:17:02;;;;;;;3.13;1.25;;;;;;;;;;5067934;28;20048;-60
2022/04/02 12:19:39;;;;;;;5.30;1.75;;;;;;;;;;5086447;28;20062;-59
2022/04/02 12:22:16;;;;;;;3.28;1.70;;;;;;;;;;5086841;28;20043;-60
2022/04/02 12:24:43;;;;;;;4.50;1.65;;;;;;;;;;5087560;28;20040;-60
2022/04/02 12:27:09;;;;;;;3.60;1.20;;;;;;;;;;5089942;28;20032;-60
2022/04/02 12:29:36;;;;;;;3.55;1.42;;;;;;;;;;5089952;28;20165;-60
2022/04/02 12:32:02;;;;;;;1.70;1.30;;;;;;;;;;5091434;28;20457;-60
2022/04/02 12:34:28;;;;;;;2.55;1.48;;;;;;;;;;5084697;28;20033;-60
2022/04/02 12:37:01;;;;;;;2.08;1.50;;;;;;;;;;5083328;28;20079;-59
2022/04/02 12:39:27;;;;;;;3.10;1.52;;;;;;;;;;5086289;28;20075;-60
2022/04/02 12:41:53;;;;;;;2.88;1.50;;;;;;;;;;5088168;28;20040;-60
2022/04/02 12:44:21;;;;;;;4.28;1.80;;;;;;;;;;5088611;28;20044;-59
2022/04/02 12:46:48;;;;;;;3.88;1.70;;;;;;;;;;5088013;28;20036;-60
2022/04/02 12:49:30;;;;;;;2.05;1.40;;;;;;;;;;5087878;28;20051;-60
2022/04/02 12:52:11;;;;;;;2.60;1.40;;;;;;;;;;5089299;28;20446;-59
2022/04/02 12:54:37;;;;;;;3.05;1.80;;;;;;;;;;5086520;28;20128;-60
2022/04/02 12:57:13;;;;;;;1.92;1.60;;;;;;;;;;5090280;28;20044;-60
2022/04/02 12:59:43;;;;;;;2.83;1.50;;;;;;;;;;5086252;28;20518;-60
2022/04/02 13:02:16;;;;;;;5.63;1.50;;;;;;;;;;5091072;28;20291;-60
2022/04/02 13:04:47;;;;;;;2.22;1.35;;;;;;;;;;5088878;28;20051;-60
2022/04/02 13:07:20;;;;;;;4.28;1.52;;;;;;;;;;5085617;28;20104;-60
2022/04/02 13:09:48;;;;;;;2.60;1.55;;;;;;;;;;5084947;28;20083;-60
2022/04/02 13:12:19;;;;;;;2.25;1.08;;;;;;;;;;5090836;28;20447;-60
2022/04/02 13:14:48;;;;;;;2.35;1.20;;;;;;;;;;5086807;28;20413;-60
2022/04/02 13:17:14;;;;;;;2.58;1.02;;;;;;;;;;5090437;28;20040;-60
2022/04/02 13:22:38;;;;;;;3.13;1.20;;;;;;;;;;5062242;28;20040;-60
2022/04/02 13:25:07;;;;;;;5.63;1.70;;;;;;;;;;5089014;28;20039;-61
2022/04/02 13:27:47;;;;;;;2.60;1.30;;;;;;;;;;5086483;28;20452;-61
2022/04/02 13:30:17;;;;;;;2.72;1.30;;;;;;;;;;5086781;28;20063;-60
2022/04/02 13:33:02;;;;;;;4.15;1.60;;;;;;;;;;5085152;28;20496;-60
2022/04/02 13:35:51;;;;;;;3.83;1.83;;;;;;;;;;5086612;28;20051;-60
2022/04/02 13:38:25;;;;;;;3.47;1.70;;;;;;;;;;5066853;28;20062;-60
2022/04/02 13:40:52;;;;;;;3.28;1.77;;;;;;;;;;5084511;28;20044;-60
2022/04/02 13:43:33;;;;;;;3.72;1.63;;;;;;;;;;5081125;28;20029;-60
2022/04/02 13:46:03;;;;;;;3.58;1.70;;;;;;;;;;5078707;28;20048;-60
2022/04/02 13:48:29;;;;;;;2.17;1.60;;;;;;;;;;5082493;28;20055;-60
2022/04/02 13:51:02;;;;;;;4.35;1.63;;;;;;;;;;5086658;28;20074;-61
2022/04/02 13:53:35;;;;;;;4.70;2.08;;;;;;;;;;5064052;28;20098;-61
2022/04/02 13:56:19;;;;;;;3.25;1.83;;;;;;;;;;5088899;28;20644;-60
2022/04/02 13:58:46;;;;;;;4.85;1.85;;;;;;;;;;5086547;28;20047;-61
2022/04/02 14:01:20;;;;;;;3.50;1.92;;;;;;;;;;5077624;28;20063;-60
2022/04/02 14:03:47;;;;;;;5.00;2.20;;;;;;;;;;5083101;28;20516;-60
2022/04/02 14:06:14;;;;;;;5.32;1.55;;;;;;;;;;5083846;28;20103;-60
2022/04/02 14:08:46;;;;;;;1.75;1.55;;;;;;;;;;5088285;28;20043;-60
2022/04/02 14:11:17;;;;;;;2.60;1.58;;;;;;;;;;5084534;28;20051;-60
2022/04/02 14:13:49;;;;;;;3.20;1.30;;;;;;;;;;5081418;28;20039;-60
2022/04/02 14:16:16;;;;;;;3.50;1.60;;;;;;;;;;5082747;28;20409;-60
2022/04/02 14:18:43;;;;;;;4.72;1.27;;;;;;;;;;5079586;28;20040;-60
2022/04/02 14:21:11;;;;;;;3.70;1.35;;;;;;;;;;5080889;28;20097;-60
2022/04/02 14:23:37;;;;;;;2.83;1.70;;;;;;;;;;5082292;28;20040;-60
2022/04/02 14:26:09;;;;;;;4.10;1.70;;;;;;;;;;5063303;28;20048;-60
2022/04/02 14:28:54;;;;;;;2.72;1.65;;;;;;;;;;5080255;28;20032;-60
2022/04/02 14:31:32;;;;;;;2.38;1.58;;;;;;;;;;5084809;28;20160;-60
2022/04/02 14:34:23;;;;;;;3.30;1.48;;;;;;;;;;5086770;28;20051;-60
2022/04/02 14:37:19;;;;;;;3.08;1.40;;;;;;;;;;5084019;28;20044;-60
2022/04/02 14:39:48;;;;;;;4.05;1.33;;;;;;;;;;5084725;28;20096;-60
2022/04/02 14:42:22;;;;;;;2.47;1.60;;;;;;;;;;5089175;28;20040;-60
2022/04/02 14:45:00;;;;;;;4.28;1.60;;;;;;;;;;5089043;28;20070;-60
2022/04/02 14:47:26;;;;;;;2.15;1.25;;;;;;;;;;5075736;28;20040;-60
2022/04/02 14:49:51;;;;;;;2.95;1.52;;;;;;;;;;5084920;28;20528;-60
2022/04/02 14:52:33;;;;;;;2.72;1.55;;;;;;;;;;5089398;28;20168;-60
2022/04/02 14:55:08;;;;;;;2.47;1.40;;;;;;;;;;5085106;28;20040;-60
2022/04/02 14:57:53;;;;;;;3.88;1.70;;;;;;;;;;5085014;28;20040;-60
2022/04/02 15:00:42;;;;;;;3.80;1.80;;;;;;;;;;5068714;28;20089;-60
2022/04/02 15:03:27;;;;;;;3.38;1.33;;;;;;;;;;5083226;28;20127;-60